CheckWX is a tool to help pilots better visualize weather data.  It is not intended as a substitute for an official pre-flight weather briefing.

14:51:32 UTC

KUKI TAF
Ukiah Municipal Airport
Ukiah, California, USA
KUKI 231120Z 2312/2412 VRB03KT P6SM SCT045 FM232100 31009KT P6SM SCT045 FM240300 VRB03KT P6SM FEW035

Mar-23@
12:00 UTC

Mar-23 @ 12:00 UTC

Mar-23@
21:00 UTC

Mar-23 @ 21:00 UTC

KUKI 231120Z 2312/2412 VRB03KT P6SM SCT045
Wind
  • Variable at 3 KTS
Cloud Levels
  • Scattered at 4,500' AGL

Mar-23@
21:00 UTC

Mar-23 @ 21:00 UTC

Mar-24@
03:00 UTC

Mar-24 @ 03:00 UTC

FM232100 31009KT P6SM SCT045

From

From Standard forecast or significant change

Wind
  • 310° at 9 KTS
Cloud Levels
  • Scattered at 4,500' AGL

Mar-24@
03:00 UTC

Mar-24 @ 03:00 UTC

Mar-24@
12:00 UTC

Mar-24 @ 12:00 UTC

FM240300 VRB03KT P6SM FEW035

From

From Standard forecast or significant change

Wind
  • Variable at 3 KTS
Cloud Levels
  • Few at 3,500' AGL